Terminal Aerodrome Forecast
Issued by NWS

Home | Current Version | Previous Version | Text Only | Print | Product List | Glossary On
Versions: 1 2 3 4 5 6 7 8 9 10 11 12
597
FTUS43 KEAX 261722
TAFSTJ
TAF
KSTJ 261722Z 2618/2718 10006KT P6SM FEW035 FEW150
     FM270600 VRB03KT P6SM FEW250
     FM271500 15006KT P6SM SCT250=

USA.gov is the U.S. government's official web portal to all federal, state and local government web resources and services.